Terminal Aerodrome Forecast
Issued by NWS

Home | Current Version | Previous Version | Text Only | Print | Product List | Glossary On
Versions: 1 2 3 4 5 6 7 8 9 10 11 12 13
974
FTUS41 KBTV 222036 AAA
TAFMSS
TAF AMD
KMSS 222036Z 2221/2318 22015KT P6SM VCSH BKN050
      TEMPO 2221/2224 5SM -TSRA BKN035CB
     FM230000 23014KT P6SM VCSH SCT015 BKN035
     FM230500 25012KT P6SM FEW040 SCT070
     FM231400 25013KT P6SM BKN040
     FM231700 25014G20KT P6SM SCT040=

USA.gov is the U.S. government's official web portal to all federal, state and local government web resources and services.